Time;durP1;ratioP1;P1;durP2;ratioP2;P2;SDS_P1;SDS_P2;PMS_P1;PMS_P2;Temp;Humidity;BMP_temperature;BMP_pressure;BME280_temperature;BME280_humidity;BME280_pressure;Samples;Min_cycle;Max_cycle;Signal;HPM_P1;HPM_P2
2023/01/15 00:02:27;;;;;;;31.43;29.17;;;;;;;5.75;100.00;99050.75;5014225;28;20465;-48
2023/01/15 00:04:55;;;;;;;31.50;29.50;;;;;;;5.78;100.00;99057.47;5014458;28;20443;-47
2023/01/15 00:07:23;;;;;;;29.37;27.63;;;;;;;5.77;100.00;99058.47;5014089;28;20429;-46
2023/01/15 00:09:51;;;;;;;30.93;29.00;;;;;;;5.79;100.00;99046.69;5013377;28;20467;-49
2023/01/15 00:12:18;;;;;;;31.17;28.80;;;;;;;5.80;100.00;99055.41;5013766;28;20468;-48
2023/01/15 00:14:46;;;;;;;30.03;27.77;;;;;;;5.84;100.00;99038.94;5013854;28;20448;-48
2023/01/15 00:17:13;;;;;;;30.30;28.40;;;;;;;5.78;100.00;99044.22;5014161;28;20433;-46
2023/01/15 00:19:42;;;;;;;30.50;28.30;;;;;;;5.77;100.00;99034.66;5013049;28;20544;-45
2023/01/15 00:22:10;;;;;;;30.73;29.07;;;;;;;5.75;100.00;99029.59;5014157;28;20460;-46
2023/01/15 00:27:38;;;;;;;31.70;29.40;;;;;;;5.69;100.00;99030.41;5014035;28;20437;-47
2023/01/15 00:30:09;;;;;;;31.93;29.53;;;;;;;5.70;100.00;99031.22;5013458;28;20471;-49
2023/01/15 00:32:37;;;;;;;32.40;29.53;;;;;;;5.70;100.00;99032.06;5013616;28;20453;-49
2023/01/15 00:35:07;;;;;;;31.87;29.83;;;;;;;5.71;100.00;99038.94;5013398;28;20437;-45
2023/01/15 00:37:35;;;;;;;32.70;30.50;;;;;;;5.69;100.00;99038.34;5008326;28;20430;-46
2023/01/15 00:40:04;;;;;;;31.20;28.80;;;;;;;5.70;100.00;99041.81;5002521;28;20489;-48
2023/01/15 00:42:32;;;;;;;30.17;28.13;;;;;;;5.71;100.00;99043.41;5013738;28;20453;-45
2023/01/15 00:45:06;;;;;;;31.57;29.20;;;;;;;5.70;100.00;99041.81;5013551;28;20495;-46
2023/01/15 00:47:33;;;;;;;32.70;30.20;;;;;;;5.67;100.00;99044.88;5013864;28;20433;-47
2023/01/15 00:50:01;;;;;;;32.30;29.53;;;;;;;5.68;100.00;99049.94;5012554;28;20471;-43
2023/01/15 00:52:30;;;;;;;31.87;29.37;;;;;;;5.66;100.00;99044.06;5013966;28;20455;-46
2023/01/15 00:54:58;;;;;;;30.47;28.37;;;;;;;5.68;100.00;99046.47;5013312;28;20433;-45
2023/01/15 00:57:25;;;;;;;31.37;29.37;;;;;;;5.66;100.00;99057.28;5013321;28;20436;-48
2023/01/15 00:59:53;;;;;;;31.90;29.10;;;;;;;5.66;100.00;99046.69;5013059;28;20483;-46
2023/01/15 01:02:21;;;;;;;30.87;28.50;;;;;;;5.66;100.00;99051.97;5013254;28;20464;-44
2023/01/15 01:04:48;;;;;;;29.67;27.70;;;;;;;5.66;100.00;99053.81;5012890;28;20977;-45
2023/01/15 01:07:17;;;;;;;33.00;29.67;;;;;;;5.68;100.00;99060.50;5013352;28;20433;-45
2023/01/15 01:09:46;;;;;;;29.50;27.40;;;;;;;5.69;100.00;99058.69;5012429;28;20829;-45
2023/01/15 01:12:13;;;;;;;29.37;27.37;;;;;;;5.69;100.00;99059.50;5013001;28;20449;-46
2023/01/15 01:14:42;;;;;;;30.00;27.90;;;;;;;5.72;100.00;99067.03;5012991;28;20433;-44
2023/01/15 01:17:11;;;;;;;30.37;28.07;;;;;;;5.75;100.00;99071.09;5013315;28;20456;-46
2023/01/15 01:19:39;;;;;;;30.00;27.70;;;;;;;5.74;100.00;99057.03;5015234;28;20468;-44
2023/01/15 01:22:06;;;;;;;31.47;29.10;;;;;;;5.75;100.00;99060.50;5015951;28;20483;-45
2023/01/15 01:24:34;;;;;;;31.47;29.03;;;;;;;5.76;100.00;99070.09;5016183;28;20441;-45
2023/01/15 01:27:03;;;;;;;30.60;28.33;;;;;;;5.77;100.00;99076.97;5015754;28;20433;-45
2023/01/15 01:29:30;;;;;;;30.37;28.43;;;;;;;5.76;100.00;99070.91;5015340;28;20874;-44
2023/01/15 01:31:59;;;;;;;30.83;28.37;;;;;;;5.79;100.00;99074.97;5015897;28;20477;-46
2023/01/15 01:34:26;;;;;;;30.17;27.90;;;;;;;5.81;100.00;99084.31;5015882;28;20436;-45
2023/01/15 01:36:54;;;;;;;30.83;28.60;;;;;;;5.81;100.00;99089.59;5015884;28;20437;-45
2023/01/15 01:39:21;;;;;;;30.40;28.37;;;;;;;5.83;100.00;99084.91;4996071;28;20470;-43
2023/01/15 01:41:49;;;;;;;30.50;28.50;;;;;;;5.83;100.00;99086.75;5011603;28;20453;-47
2023/01/15 01:45:09;;;;;;;30.70;28.43;;;;;;;5.86;100.00;99110.16;5015622;28;20437;-47
2023/01/15 01:47:38;;;;;;;32.47;29.87;;;;;;;5.86;100.00;99091.66;4955531;29;20444;-44
2023/01/15 01:50:12;;;;;;;32.33;29.70;;;;;;;5.85;100.00;99090.84;4954361;28;20470;-46
2023/01/15 01:52:43;;;;;;;30.30;27.97;;;;;;;5.85;100.00;99082.91;4985214;28;20464;-45
2023/01/15 01:55:13;;;;;;;30.37;27.90;;;;;;;5.88;100.00;99084.34;5015544;28;20440;-45
2023/01/15 01:57:42;;;;;;;29.90;27.73;;;;;;;5.88;100.00;99084.34;5015350;28;20536;-45
2023/01/15 02:00:11;;;;;;;32.40;29.63;;;;;;;5.86;100.00;99081.06;5014699;28;20471;-46
2023/01/15 02:02:41;;;;;;;30.07;27.40;;;;;;;5.85;100.00;99085.56;5014772;28;20931;-47
2023/01/15 02:05:12;;;;;;;30.53;28.53;;;;;;;5.84;100.00;99083.09;5014729;28;20437;-45
2023/01/15 02:07:40;;;;;;;31.57;29.23;;;;;;;5.84;100.00;99081.25;5015227;28;20431;-46
2023/01/15 02:10:14;;;;;;;30.20;28.20;;;;;;;5.82;100.00;99074.56;5014323;28;20463;-45
2023/01/15 02:12:46;;;;;;;29.60;27.73;;;;;;;5.85;100.00;99068.84;5015218;28;20449;-44
2023/01/15 02:15:17;;;;;;;32.43;29.40;;;;;;;5.86;100.00;99081.06;5014926;28;20830;-48
2023/01/15 02:17:53;;;;;;;30.20;28.13;;;;;;;5.89;100.00;99091.22;5014755;28;20783;-47
2023/01/15 02:20:29;;;;;;;32.03;29.10;;;;;;;5.85;100.00;99079.44;5014004;28;20576;-45
2023/01/15 02:23:21;;;;;;;30.30;28.00;;;;;;;5.84;100.00;99070.69;5014904;28;20433;-45
2023/01/15 02:26:02;;;;;;;32.27;29.40;;;;;;;5.84;100.00;99068.03;5014438;28;20437;-45
2023/01/15 02:28:35;;;;;;;31.20;28.83;;;;;;;5.84;100.00;99062.75;5014845;28;20794;-44
2023/01/15 02:31:09;;;;;;;30.00;27.90;;;;;;;5.83;100.00;99063.75;5013990;28;21044;-46
2023/01/15 02:33:40;;;;;;;32.80;30.17;;;;;;;5.89;100.00;99075.38;5014762;28;20428;-45
2023/01/15 02:36:12;;;;;;;32.00;29.40;;;;;;;5.89;100.00;99083.28;5014559;28;20425;-46
2023/01/15 02:38:45;;;;;;;31.33;29.23;;;;;;;5.89;100.00;99084.13;5005909;28;20440;-44
2023/01/15 02:41:16;;;;;;;29.10;27.20;;;;;;;5.91;100.00;99086.56;5006890;28;20477;-45
2023/01/15 02:43:50;;;;;;;31.23;28.97;;;;;;;5.91;100.00;99082.06;5014650;28;20443;-45
2023/01/15 02:46:21;;;;;;;31.47;28.80;;;;;;;5.84;100.00;99075.16;5014948;28;20433;-43
2023/01/15 02:48:53;;;;;;;29.23;27.10;;;;;;;5.82;100.00;99066.63;5014469;28;20490;-47
2023/01/15 02:51:28;;;;;;;31.80;29.40;;;;;;;5.76;100.00;99073.53;5014512;28;20449;-49
2023/01/15 02:54:01;;;;;;;29.50;27.50;;;;;;;5.70;100.00;99082.31;5014721;28;20794;-45
2023/01/15 02:56:34;;;;;;;30.10;28.23;;;;;;;5.72;100.00;99074.16;5014579;28;20429;-46
2023/01/15 02:59:07;;;;;;;31.50;28.77;;;;;;;5.69;100.00;99077.19;5014135;28;20457;-45
2023/01/15 03:01:38;;;;;;;31.43;28.80;;;;;;;5.69;100.00;99066.63;5014211;28;20468;-45
2023/01/15 03:04:12;;;;;;;31.57;28.97;;;;;;;5.71;100.00;99070.69;5014593;28;20460;-46
2023/01/15 03:06:46;;;;;;;30.67;28.20;;;;;;;5.69;100.00;99067.44;5014667;28;20440;-45
2023/01/15 03:09:15;;;;;;;29.30;27.27;;;;;;;5.70;100.00;99074.38;5014120;28;20465;-48
2023/01/15 03:11:47;;;;;;;30.50;28.20;;;;;;;5.69;100.00;99080.66;5014187;28;20457;-43
2023/01/15 03:14:20;;;;;;;29.33;27.40;;;;;;;5.70;100.00;99060.31;5014167;28;20433;-48
2023/01/15 03:16:51;;;;;;;30.73;28.70;;;;;;;5.72;100.00;99068.84;5014502;28;20429;-45
2023/01/15 03:19:25;;;;;;;30.17;27.93;;;;;;;5.74;100.00;99061.53;5014055;28;20461;-46
2023/01/15 03:21:57;;;;;;;32.10;29.77;;;;;;;5.73;100.00;99059.91;5014578;28;20456;-43
2023/01/15 03:24:31;;;;;;;30.27;28.03;;;;;;;5.72;100.00;99056.44;5014330;28;20468;-45
2023/01/15 03:26:59;;;;;;;30.77;28.87;;;;;;;5.67;100.00;99061.56;5014709;28;20441;-47
2023/01/15 03:29:32;;;;;;;30.60;28.00;;;;;;;5.65;100.00;99058.28;5014068;28;20453;-43
2023/01/15 03:32:00;;;;;;;32.00;29.53;;;;;;;5.61;100.00;99049.16;5013997;28;20991;-45
2023/01/15 03:34:34;;;;;;;30.57;28.60;;;;;;;5.58;100.00;99044.28;4995171;28;20447;-44
2023/01/15 03:37:02;;;;;;;31.30;29.10;;;;;;;5.54;100.00;99033.28;4982977;28;21090;-45
2023/01/15 03:39:30;;;;;;;30.40;28.60;;;;;;;5.51;100.00;99039.00;4980344;28;20524;-45
2023/01/15 03:42:08;;;;;;;31.80;29.30;;;;;;;5.49;100.00;99051.63;4978453;28;20461;-44
2023/01/15 03:44:45;;;;;;;30.10;28.10;;;;;;;5.48;100.00;99036.75;4981079;28;20497;-46
2023/01/15 03:47:26;;;;;;;30.80;28.60;;;;;;;5.52;100.00;99034.53;4982527;28;20438;-45
2023/01/15 03:50:00;;;;;;;32.13;29.00;;;;;;;5.54;100.00;99035.13;4976150;28;20473;-45
2023/01/15 03:52:31;;;;;;;32.40;29.80;;;;;;;5.56;100.00;99028.59;4995414;28;20446;-44
2023/01/15 03:55:10;;;;;;;30.53;28.50;;;;;;;5.56;100.00;99035.72;5011403;28;20425;-45
2023/01/15 03:57:43;;;;;;;33.00;30.57;;;;;;;5.60;100.00;99039.59;5014700;28;20413;-45
2023/01/15 04:00:18;;;;;;;33.13;29.97;;;;;;;5.61;100.00;99033.28;5013815;28;20485;-45
2023/01/15 04:02:47;;;;;;;31.53;29.00;;;;;;;5.57;100.00;99032.06;5014108;28;20464;-45
2023/01/15 04:05:16;;;;;;;31.23;28.70;;;;;;;5.53;100.00;99023.72;5013587;28;20441;-45
2023/01/15 04:07:46;;;;;;;31.47;28.80;;;;;;;5.53;100.00;99022.91;5014299;28;20906;-46
2023/01/15 04:10:14;;;;;;;31.87;29.50;;;;;;;5.48;100.00;99007.69;5013536;28;20467;-44
2023/01/15 04:12:41;;;;;;;32.07;29.33;;;;;;;5.50;100.00;99008.28;5014567;28;20453;-45
2023/01/15 04:15:10;;;;;;;33.30;29.97;;;;;;;5.49;100.00;99014.59;5014401;28;20429;-45
2023/01/15 04:17:39;;;;;;;32.37;30.10;;;;;;;5.49;100.00;99008.50;5014733;28;20536;-45
2023/01/15 04:20:09;;;;;;;30.47;28.40;;;;;;;5.50;100.00;99002.16;5014204;28;20485;-46
2023/01/15 04:22:36;;;;;;;30.40;28.20;;;;;;;5.50;100.00;99000.34;5014212;28;20445;-48
2023/01/15 04:25:05;;;;;;;31.80;29.00;;;;;;;5.50;100.00;98984.47;5013626;28;20433;-46
2023/01/15 04:27:33;;;;;;;32.03;29.27;;;;;;;5.51;100.00;98996.69;5014537;28;20431;-48
2023/01/15 04:30:01;;;;;;;31.63;29.20;;;;;;;5.49;100.00;99009.31;5013991;28;20461;-45
2023/01/15 04:32:28;;;;;;;30.83;28.60;;;;;;;5.46;100.00;98998.31;5013864;28;20456;-45
2023/01/15 04:34:57;;;;;;;30.97;28.73;;;;;;;5.43;100.00;99002.19;5013989;28;20437;-47
2023/01/15 04:37:25;;;;;;;30.90;28.67;;;;;;;5.41;100.00;99012.16;5010648;28;20433;-43
2023/01/15 04:39:53;;;;;;;31.77;28.80;;;;;;;5.39;100.00;99000.16;5002509;28;20457;-43
2023/01/15 04:45:07;;;;;;;30.90;28.40;;;;;;;5.38;100.00;98999.34;4975057;28;20439;-44
2023/01/15 04:47:35;;;;;;;32.00;29.57;;;;;;;5.40;100.00;99007.91;4974982;28;20435;-45
2023/01/15 04:50:04;;;;;;;30.83;28.30;;;;;;;5.41;100.00;99000.75;4974012;28;20455;-46
2023/01/15 04:52:32;;;;;;;30.80;28.20;;;;;;;5.46;100.00;98987.75;4977249;28;20465;-44
2023/01/15 04:55:00;;;;;;;33.13;29.97;;;;;;;5.48;100.00;98980.41;4978483;28;20446;-45
2023/01/15 04:57:27;;;;;;;31.07;28.93;;;;;;;5.47;100.00;98979.59;4984646;28;20520;-46
2023/01/15 04:59:55;;;;;;;31.53;28.90;;;;;;;5.51;100.00;98991.41;5012713;28;21117;-46
2023/01/15 05:02:22;;;;;;;32.60;29.50;;;;;;;5.56;100.00;98988.94;5012759;28;21081;-45
2023/01/15 05:04:50;;;;;;;29.93;28.17;;;;;;;5.56;100.00;98988.13;5002047;28;20465;-48
2023/01/15 05:07:19;;;;;;;33.23;30.20;;;;;;;5.58;100.00;98971.03;4982297;28;20430;-45
2023/01/15 05:09:50;;;;;;;31.40;29.10;;;;;;;5.59;100.00;98977.94;4984226;28;20519;-48
2023/01/15 05:12:18;;;;;;;32.67;29.60;;;;;;;5.63;100.00;98981.00;4997324;28;20468;-45
2023/01/15 05:14:45;;;;;;;32.13;29.70;;;;;;;5.65;100.00;98975.47;5011653;28;20440;-44
2023/01/15 05:17:13;;;;;;;31.17;28.87;;;;;;;5.66;100.00;98977.13;4998872;28;20938;-46
2023/01/15 05:19:41;;;;;;;29.47;27.50;;;;;;;5.62;100.00;98965.31;4997553;28;20915;-46
2023/01/15 05:22:08;;;;;;;31.43;28.80;;;;;;;5.61;100.00;98967.19;5006544;28;20528;-51
2023/01/15 05:24:37;;;;;;;29.80;27.83;;;;;;;5.63;100.00;98967.78;5008941;28;20441;-47
2023/01/15 05:27:05;;;;;;;31.20;28.40;;;;;;;5.65;100.00;98957.78;5005841;28;20961;-45
2023/01/15 05:29:33;;;;;;;31.03;28.53;;;;;;;5.64;100.00;98976.53;5005416;28;20463;-45
2023/01/15 05:32:01;;;;;;;32.10;28.80;;;;;;;5.65;100.00;98983.41;5000101;28;20454;-45
2023/01/15 05:34:29;;;;;;;32.87;29.60;;;;;;;5.64;100.00;98987.91;4994313;28;20429;-49
2023/01/15 05:36:56;;;;;;;31.00;28.73;;;;;;;5.64;100.00;98969.41;5003680;28;20438;-45
2023/01/15 05:39:24;;;;;;;31.10;29.00;;;;;;;5.63;100.00;98975.72;5000208;28;20468;-45
2023/01/15 05:41:53;;;;;;;30.97;28.53;;;;;;;5.63;100.00;98969.59;5010806;28;20507;-45
2023/01/15 05:44:23;;;;;;;31.43;29.27;;;;;;;5.64;100.00;98973.88;5012296;28;20441;-44
2023/01/15 05:46:52;;;;;;;31.70;29.20;;;;;;;5.62;100.00;98960.03;4997973;28;20458;-46
2023/01/15 05:49:22;;;;;;;30.50;28.50;;;;;;;5.61;100.00;98964.53;4980143;28;20835;-43
2023/01/15 05:51:51;;;;;;;32.00;30.00;;;;;;;5.61;100.00;98953.97;4994142;28;20454;-49
2023/01/15 05:54:21;;;;;;;31.40;28.67;;;;;;;5.66;100.00;98969.19;4990063;28;20442;-46
2023/01/15 05:56:49;;;;;;;30.57;28.53;;;;;;;5.64;100.00;98956.19;5000623;28;21003;-46
2023/01/15 05:59:19;;;;;;;30.57;28.50;;;;;;;5.65;100.00;98947.22;5002929;28;20488;-46
2023/01/15 06:01:47;;;;;;;31.63;29.20;;;;;;;5.65;100.00;98957.78;5000514;28;20477;-44
2023/01/15 06:04:16;;;;;;;32.70;30.03;;;;;;;5.67;100.00;98949.66;4989253;28;20441;-47
2023/01/15 06:06:44;;;;;;;30.20;28.07;;;;;;;5.68;100.00;98957.38;5004641;28;20975;-46
2023/01/15 06:09:12;;;;;;;30.87;28.73;;;;;;;5.67;100.00;98947.84;4990241;28;20997;-45
2023/01/15 06:11:40;;;;;;;29.93;28.00;;;;;;;5.68;100.00;98938.88;4983698;28;20486;-48
2023/01/15 06:14:10;;;;;;;33.47;30.87;;;;;;;5.70;100.00;98947.44;4983123;28;20490;-46
2023/01/15 06:16:39;;;;;;;31.77;29.70;;;;;;;5.67;100.00;98947.03;4983834;28;20449;-46
2023/01/15 06:19:09;;;;;;;31.57;29.40;;;;;;;5.67;100.00;98957.59;4978039;28;20482;-45
2023/01/15 06:21:37;;;;;;;31.57;29.47;;;;;;;5.66;100.00;98953.31;5001236;28;21010;-45
2023/01/15 06:24:06;;;;;;;30.90;28.40;;;;;;;5.66;100.00;98958.63;4992432;28;20442;-47
2023/01/15 06:26:34;;;;;;;31.23;28.80;;;;;;;5.68;100.00;98948.63;4986678;28;20520;-45
2023/01/15 06:29:01;;;;;;;31.90;29.40;;;;;;;5.67;100.00;98942.56;4957174;28;21051;-46
2023/01/15 06:31:31;;;;;;;30.50;28.30;;;;;;;5.67;100.00;98947.84;4989336;28;20551;-45
2023/01/15 06:34:00;;;;;;;31.10;28.60;;;;;;;5.67;100.00;98942.56;5011990;28;20463;-46
2023/01/15 06:36:29;;;;;;;30.30;28.27;;;;;;;5.68;100.00;98951.28;5002214;28;20445;-45
2023/01/15 06:38:58;;;;;;;29.77;27.70;;;;;;;5.67;100.00;98937.25;4996837;28;20469;-47
2023/01/15 06:49:44;;;;;;;31.07;29.17;;;;;;;5.65;100.00;98934.00;5000772;28;20472;-48
2023/01/15 06:52:12;;;;;;;30.20;28.23;;;;;;;5.61;100.00;98940.75;4988350;28;20447;-45
2023/01/15 06:54:40;;;;;;;32.07;29.53;;;;;;;5.61;100.00;98934.63;4977926;28;20447;-45
2023/01/15 06:57:08;;;;;;;30.93;28.23;;;;;;;5.57;100.00;98939.53;4995025;28;20524;-47
2023/01/15 06:59:36;;;;;;;32.00;29.80;;;;;;;5.57;100.00;98945.63;4994844;28;20457;-47
2023/01/15 07:02:03;;;;;;;31.60;29.30;;;;;;;5.57;100.00;98945.63;5003766;28;20557;-44
2023/01/15 07:04:31;;;;;;;32.73;30.30;;;;;;;5.62;100.00;98944.97;4998250;28;20438;-45
2023/01/15 07:07:00;;;;;;;31.80;29.40;;;;;;;5.58;100.00;98943.81;5013293;28;20453;-45
2023/01/15 07:09:28;;;;;;;30.57;28.43;;;;;;;5.60;100.00;98944.41;4979890;28;20470;-45
2023/01/15 07:11:56;;;;;;;30.30;28.23;;;;;;;5.57;100.00;98940.34;4984512;28;20457;-46
2023/01/15 07:14:25;;;;;;;31.97;29.83;;;;;;;5.55;100.00;98928.34;4983510;28;20435;-47
2023/01/15 07:16:53;;;;;;;31.00;29.00;;;;;;;5.56;100.00;98940.53;5007007;28;20806;-44
2023/01/15 07:19:21;;;;;;;33.73;30.77;;;;;;;5.50;100.00;98944.81;4994705;28;20823;-43
2023/01/15 07:21:48;;;;;;;32.60;29.67;;;;;;;5.46;100.00;98942.81;5009574;28;20476;-44
2023/01/15 07:24:18;;;;;;;32.00;29.20;;;;;;;5.44;100.00;98948.28;4997671;28;20449;-47
2023/01/15 07:26:46;;;;;;;31.70;29.57;;;;;;;5.43;100.00;98951.97;4986706;28;20461;-45
2023/01/15 07:29:14;;;;;;;30.70;28.43;;;;;;;5.41;100.00;98955.81;4977762;28;20473;-46
2023/01/15 07:31:42;;;;;;;31.17;28.80;;;;;;;5.39;100.00;98947.28;4979609;28;20457;-43
2023/01/15 07:34:10;;;;;;;30.23;27.77;;;;;;;5.38;100.00;98948.31;4997141;28;20445;-44
2023/01/15 07:36:38;;;;;;;30.67;27.93;;;;;;;5.35;100.00;98949.53;5013653;28;20430;-44
2023/01/15 07:39:06;;;;;;;30.03;27.87;;;;;;;5.35;100.00;98946.88;5000111;28;20469;-43
2023/01/15 07:50:02;;;;;;;30.30;28.43;;;;;;;5.29;100.00;98941.59;4993495;28;20453;-44
2023/01/15 07:52:30;;;;;;;29.67;27.73;;;;;;;5.31;100.00;98950.97;5008940;28;20450;-44
2023/01/15 07:54:57;;;;;;;29.27;27.43;;;;;;;5.30;100.00;98938.78;5015263;28;20433;-46
2023/01/15 07:57:27;;;;;;;29.50;27.33;;;;;;;5.31;100.00;98948.34;5015462;28;20437;-46
2023/01/15 07:59:54;;;;;;;32.13;29.90;;;;;;;5.31;100.00;98943.06;5014048;28;20453;-45
2023/01/15 08:02:22;;;;;;;32.43;30.13;;;;;;;5.36;100.00;98951.16;5014753;28;20481;-45
2023/01/15 08:04:50;;;;;;;33.50;30.30;;;;;;;5.34;100.00;98949.75;5014079;28;20437;-44
2023/01/15 08:07:18;;;;;;;29.03;27.40;;;;;;;5.37;100.00;98968.66;5012911;28;20433;-47
2023/01/15 08:09:45;;;;;;;28.83;26.87;;;;;;;5.39;100.00;98956.03;5013184;28;20488;-44
2023/01/15 08:15:15;;;;;;;27.20;25.80;;;;;;;5.44;100.00;98963.34;5014627;28;20435;-44
2023/01/15 08:17:44;;;;;;;29.33;27.63;;;;;;;5.48;100.00;98957.44;5013263;28;20461;-46
2023/01/15 08:20:15;;;;;;;28.40;26.53;;;;;;;5.51;100.00;98964.16;5013499;28;20528;-46
2023/01/15 08:22:44;;;;;;;29.17;27.17;;;;;;;5.54;100.00;98959.25;4995780;28;20578;-43
2023/01/15 08:25:13;;;;;;;29.77;27.13;;;;;;;5.55;100.00;98950.28;4990654;28;20422;-45
2023/01/15 08:27:42;;;;;;;30.17;27.73;;;;;;;5.61;100.00;98958.44;4992926;28;20836;-46
2023/01/15 08:30:14;;;;;;;30.30;27.80;;;;;;;5.63;100.00;98954.56;5009185;28;20947;-45
2023/01/15 08:32:42;;;;;;;28.70;27.13;;;;;;;5.65;100.00;98951.69;4997430;28;20438;-45
2023/01/15 08:35:11;;;;;;;28.43;26.50;;;;;;;5.70;100.00;98952.72;4997900;28;20441;-45
2023/01/15 08:37:39;;;;;;;31.00;28.63;;;;;;;5.70;100.00;98967.75;4991859;28;20837;-43
2023/01/15 08:40:08;;;;;;;29.87;27.77;;;;;;;5.72;100.00;98953.31;5007862;28;20425;-45
2023/01/15 08:42:36;;;;;;;29.43;27.60;;;;;;;5.68;100.00;98956.56;5016479;28;20477;-45
2023/01/15 08:45:04;;;;;;;28.20;26.80;;;;;;;5.64;100.00;98942.97;5015911;28;20436;-45
2023/01/15 08:47:33;;;;;;;29.73;27.60;;;;;;;5.66;100.00;98948.84;5017186;28;20429;-43
2023/01/15 08:50:01;;;;;;;30.27;28.27;;;;;;;5.62;100.00;98949.47;5008464;28;20454;-45
2023/01/15 08:52:28;;;;;;;28.50;26.67;;;;;;;5.66;100.00;98948.03;4996176;28;20963;-47
2023/01/15 08:54:56;;;;;;;29.03;27.30;;;;;;;5.68;100.00;98956.56;4994573;28;20446;-44
2023/01/15 08:57:24;;;;;;;28.77;27.07;;;;;;;5.72;100.00;98944.56;4995446;28;20517;-47
2023/01/15 08:59:51;;;;;;;29.73;27.10;;;;;;;5.75;100.00;98950.25;5001188;28;21170;-47
2023/01/15 09:02:19;;;;;;;29.97;27.73;;;;;;;5.76;100.00;98945.78;5014510;28;20464;-45
2023/01/15 09:04:48;;;;;;;28.83;26.73;;;;;;;5.73;100.00;98951.47;5015100;28;20433;-46
2023/01/15 09:07:16;;;;;;;29.37;27.73;;;;;;;5.76;100.00;98941.31;5015988;28;20483;-48
2023/01/15 09:09:44;;;;;;;30.47;28.23;;;;;;;5.82;100.00;98939.66;5015108;28;20465;-47
2023/01/15 09:12:12;;;;;;;28.17;25.63;;;;;;;5.83;100.00;98938.59;5014457;28;20464;-46
2023/01/15 09:14:40;;;;;;;26.97;25.40;;;;;;;5.80;100.00;98942.50;5015455;28;20429;-46
2023/01/15 09:17:28;;;;;;;27.63;25.53;;;;;;;5.88;100.00;98929.06;5014693;28;20502;-46
2023/01/15 09:19:57;;;;;;;28.70;26.57;;;;;;;5.90;100.00;98937.59;5007345;28;20473;-45
2023/01/15 09:22:28;;;;;;;27.90;26.03;;;;;;;5.99;100.00;98935.53;4994425;28;20450;-45
2023/01/15 09:24:56;;;;;;;27.63;25.93;;;;;;;6.02;100.00;98929.81;4995357;28;20452;-45
2023/01/15 09:27:23;;;;;;;28.40;26.00;;;;;;;6.02;100.00;98927.97;4996083;28;20430;-44
2023/01/15 09:29:51;;;;;;;26.63;25.07;;;;;;;5.96;100.00;98926.19;4994477;28;20468;-43
2023/01/15 09:32:19;;;;;;;28.37;26.10;;;;;;;5.94;100.00;98917.63;5007422;28;20448;-43
2023/01/15 09:34:47;;;;;;;27.10;25.63;;;;;;;5.92;100.00;98909.09;4996631;28;20442;-44
2023/01/15 09:37:16;;;;;;;27.73;26.10;;;;;;;5.97;100.00;98919.06;4994881;28;20492;-43
2023/01/15 09:39:43;;;;;;;27.50;25.97;;;;;;;5.99;100.00;98915.19;4996509;28;20828;-50
2023/01/15 09:42:26;;;;;;;27.80;25.80;;;;;;;6.05;100.00;98916.16;5013537;28;20456;-45
2023/01/15 09:45:16;;;;;;;27.20;25.50;;;;;;;5.99;100.00;98925.75;5015538;28;20989;-43
2023/01/15 09:48:05;;;;;;;26.90;24.97;;;;;;;6.05;100.00;98932.03;5021187;28;20447;-46
2023/01/15 09:50:44;;;;;;;27.47;25.47;;;;;;;6.07;100.00;98909.63;5011682;28;20440;-45
2023/01/15 09:53:49;;;;;;;28.00;26.00;;;;;;;6.17;100.00;98925.06;5003835;28;20438;-44
2023/01/15 09:56:22;;;;;;;27.70;25.80;;;;;;;6.33;100.00;98907.88;5003214;28;20500;-45
2023/01/15 09:58:52;;;;;;;27.27;25.37;;;;;;;6.36;100.00;98915.38;5003369;28;20476;-47
2023/01/15 10:01:24;;;;;;;26.87;25.33;;;;;;;6.27;100.00;98911.38;5003290;28;20465;-46
2023/01/15 10:03:59;;;;;;;26.33;24.67;;;;;;;6.22;100.00;98884.69;5004057;28;20582;-47
2023/01/15 10:06:30;;;;;;;26.80;25.10;;;;;;;6.22;100.00;98884.69;5003248;28;20456;-44
2023/01/15 10:09:06;;;;;;;25.77;24.40;;;;;;;6.18;100.00;98881.69;5002388;28;20461;-45
2023/01/15 10:14:38;;;;;;;28.63;26.53;;;;;;;6.22;100.00;98882.88;5002192;28;20426;-45
2023/01/15 10:17:19;;;;;;;27.60;26.03;;;;;;;6.25;100.00;98902.81;5003355;28;20848;-46
2023/01/15 10:19:47;;;;;;;28.13;26.37;;;;;;;5.94;100.00;98922.13;5008618;28;20464;-46
2023/01/15 10:22:26;;;;;;;26.03;24.67;;;;;;;5.50;100.00;98888.47;5022458;28;20480;-50
2023/01/15 10:24:57;;;;;;;25.57;24.27;;;;;;;5.19;100.00;98913.00;5019060;28;21022;-46
2023/01/15 10:27:28;;;;;;;26.37;23.67;;;;;;;5.00;100.00;98909.34;5004042;28;20416;-46
2023/01/15 10:30:04;;;;;;;24.40;23.30;;;;;;;4.86;100.00;98899.81;5004363;28;20538;-47
2023/01/15 10:32:42;;;;;;;26.17;24.67;;;;;;;4.87;100.00;98879.47;5003265;28;20442;-49
2023/01/15 10:35:34;;;;;;;26.63;24.70;;;;;;;4.97;100.00;98882.53;5007061;28;20460;-46
2023/01/15 10:38:13;;;;;;;29.00;26.33;;;;;;;5.08;100.00;98859.97;4999738;28;20462;-46
2023/01/15 10:41:05;;;;;;;28.17;25.80;;;;;;;5.25;100.00;98853.22;5017054;28;20505;-47
2023/01/15 10:43:45;;;;;;;27.37;25.47;;;;;;;5.44;100.00;98855.78;5006563;28;20510;-45
2023/01/15 10:46:15;;;;;;;27.63;25.70;;;;;;;5.59;100.00;98826.41;5013555;28;20436;-46
2023/01/15 10:48:48;;;;;;;26.93;25.43;;;;;;;5.67;100.00;98828.84;5022317;28;20469;-44
2023/01/15 10:51:20;;;;;;;26.27;24.87;;;;;;;5.72;100.00;98844.88;5021393;28;20472;-46
2023/01/15 10:53:55;;;;;;;28.23;25.73;;;;;;;5.66;100.00;98845.72;5022372;28;20461;-44
2023/01/15 10:56:33;;;;;;;26.47;24.90;;;;;;;5.62;100.00;98838.41;5023265;28;20440;-46
2023/01/15 10:59:12;;;;;;;27.80;26.10;;;;;;;5.86;100.00;98856.22;5022305;28;20469;-45
2023/01/15 11:01:40;;;;;;;28.03;25.67;;;;;;;5.84;100.00;98843.19;5022047;28;20457;-45
2023/01/15 11:04:09;;;;;;;26.67;25.10;;;;;;;5.84;100.00;98851.13;5021759;28;21050;-46
2023/01/15 11:06:36;;;;;;;27.17;25.50;;;;;;;5.84;100.00;98845.00;5003858;28;20460;-45
2023/01/15 11:09:05;;;;;;;28.47;26.07;;;;;;;5.81;100.00;98829.56;5002488;28;20464;-45
2023/01/15 11:20:16;;;;;;;27.50;25.90;;;;;;;5.83;100.00;98835.44;5014642;28;20492;-44
2023/01/15 11:22:44;;;;;;;26.93;24.97;;;;;;;5.83;100.00;98828.31;5006312;28;20449;-46
2023/01/15 11:25:12;;;;;;;27.10;25.80;;;;;;;5.85;100.00;98818.41;5014423;28;20474;-46
2023/01/15 11:27:41;;;;;;;26.17;24.77;;;;;;;5.85;100.00;98834.25;5001908;28;20438;-46
2023/01/15 11:30:30;;;;;;;26.07;24.67;;;;;;;5.86;100.00;98825.28;5003421;28;20429;-46
2023/01/15 11:33:02;;;;;;;27.07;25.50;;;;;;;5.81;100.00;98817.16;5001178;28;20533;-48
2023/01/15 11:35:31;;;;;;;25.40;24.10;;;;;;;5.75;100.00;98806.59;5003154;28;20430;-45
2023/01/15 11:38:04;;;;;;;25.57;24.27;;;;;;;5.78;100.00;98796.41;4995922;28;20462;-51
2023/01/15 11:40:32;;;;;;;26.17;24.67;;;;;;;5.86;100.00;98798.03;5016732;28;20434;-47
2023/01/15 11:51:28;;;;;;;25.03;23.40;;;;;;;5.90;100.00;98754.25;5002790;28;20454;-44
2023/01/15 11:54:02;;;;;;;26.77;24.50;;;;;;;5.86;100.00;98748.56;5002706;28;20473;-45
2023/01/15 11:56:33;;;;;;;25.63;24.33;;;;;;;5.95;100.00;98738.53;5003606;28;20448;-46
2023/01/15 11:59:09;;;;;;;25.10;23.43;;;;;;;5.90;100.00;98741.84;5003156;28;20458;-45
2023/01/15 12:01:42;;;;;;;23.57;22.40;;;;;;;5.88;100.00;98738.63;5001526;28;20465;-50
2023/01/15 12:04:25;;;;;;;25.90;24.40;;;;;;;5.95;100.00;98731.41;5001937;28;20469;-47
2023/01/15 12:06:54;;;;;;;24.87;23.53;;;;;;;5.98;100.00;98733.63;5002957;28;20430;-44
2023/01/15 12:09:35;;;;;;;24.57;23.47;;;;;;;6.01;100.00;98721.81;5000439;28;20983;-45
2023/01/15 12:12:16;;;;;;;23.70;22.40;;;;;;;5.95;100.00;98714.72;5002656;28;20453;-45
2023/01/15 12:15:00;;;;;;;24.30;22.70;;;;;;;5.92;100.00;98712.50;5000836;28;20430;-45
2023/01/15 12:17:51;;;;;;;25.20;23.50;;;;;;;5.83;100.00;98703.19;5002444;28;20514;-47
2023/01/15 12:20:25;;;;;;;24.93;23.53;;;;;;;5.86;100.00;98693.03;5001316;28;20655;-45